Terminal Aerodrome Forecast
Issued by NWS

Home | Current Version | Previous Version | Text Only | Print | Product List | Glossary On
Versions: 1 2 3 4 5 6 7 8 9 10 11 12 13 14 15 16
000
FTUS44 KEPZ 172324
TAFTCS

TAF
KTCS 172321Z 1800/1824 11007KT P6SM VCSH FEW025 SCT050 BKN100
     FM180200 01007KT 5SM -SHRA FEW005 BKN020 OVC040
     FM181200 04007KT 4SM SHRA SCT005 BKN015 OVC030
      TEMPO 1812/1816 2SM +SHRA BKN010 OVC020
     FM182000 06007KT P6SM VCSH BKN025 OVC040=

USA.gov is the U.S. government's official web portal to all federal, state and local government web resources and services.